createdAt,value
2022-09-15T00:00:26.962Z,56.99
2022-09-15T00:02:53.418Z,57.08
2022-09-15T00:05:19.839Z,57.04
2022-09-15T00:07:48.958Z,56.98
2022-09-15T00:10:15.312Z,56.95
2022-09-15T00:12:42.522Z,57.26
2022-09-15T00:15:08.856Z,57.21
2022-09-15T00:17:35.207Z,57.20
2022-09-15T00:20:01.618Z,57.20
2022-09-15T00:22:27.975Z,57.23
2022-09-15T00:24:54.311Z,57.19
2022-09-15T00:27:21.531Z,56.82
2022-09-15T00:29:48.740Z,56.80
2022-09-15T00:32:17.841Z,57.02
2022-09-15T00:34:45.022Z,57.08
2022-09-15T00:37:12.207Z,56.98
2022-09-15T00:39:38.572Z,56.96
2022-09-15T00:42:07.700Z,56.97
2022-09-15T00:44:34.037Z,56.49
2022-09-15T00:47:18.330Z,57.31
2022-09-15T00:49:45.429Z,56.80
2022-09-15T00:52:13.627Z,56.80
2022-09-15T00:54:40.845Z,56.62
2022-09-15T00:57:08.031Z,56.89
2022-09-15T00:59:35.222Z,56.90
2022-09-15T01:02:02.487Z,56.86
2022-09-15T01:04:31.628Z,56.77
2022-09-15T01:06:57.992Z,56.79
2022-09-15T01:09:27.094Z,56.76
2022-09-15T01:11:54.293Z,56.77
2022-09-15T01:14:23.440Z,56.80
2022-09-15T01:16:52.704Z,56.96
2022-09-15T01:19:19.099Z,56.64
2022-09-15T01:21:45.465Z,56.65
2022-09-15T01:24:11.881Z,56.95
2022-09-15T01:26:38.230Z,56.83
2022-09-15T01:29:04.660Z,56.84
2022-09-15T01:31:31.026Z,56.62
2022-09-15T01:33:57.501Z,56.94
2022-09-15T01:36:26.654Z,56.73
2022-09-15T01:38:54.941Z,56.84
2022-09-15T01:41:21.351Z,56.54
2022-09-15T01:43:49.565Z,56.70
2022-09-15T01:46:18.788Z,57.03
2022-09-15T01:48:45.226Z,56.96
2022-09-15T01:51:11.580Z,56.73
2022-09-15T01:53:38.043Z,57.07
2022-09-15T01:56:06.336Z,56.76
2022-09-15T01:58:35.457Z,57.03
2022-09-15T02:01:03.809Z,57.13
2022-09-15T02:03:32.083Z,57.17
2022-09-15T02:05:58.520Z,57.27
2022-09-15T02:08:24.916Z,56.97
2022-09-15T02:10:51.362Z,57.21
2022-09-15T02:13:17.856Z,57.03
2022-09-15T02:15:45.110Z,56.96
2022-09-15T02:18:11.602Z,56.88
2022-09-15T02:20:38.848Z,57.44
2022-09-15T02:23:05.323Z,57.00
2022-09-15T02:25:31.711Z,57.00
2022-09-15T02:27:58.118Z,57.38
2022-09-15T02:30:24.495Z,56.78
2022-09-15T02:32:50.945Z,56.95
2022-09-15T02:35:18.164Z,57.06
2022-09-15T02:37:44.622Z,56.89
2022-09-15T02:40:13.867Z,56.89
2022-09-15T02:42:43.061Z,57.28
2022-09-15T02:45:10.388Z,56.86
2022-09-15T02:47:39.547Z,57.20
2022-09-15T02:50:07.848Z,57.08
2022-09-15T02:52:36.072Z,56.84
2022-09-15T02:55:02.544Z,57.15
2022-09-15T02:57:28.971Z,57.15
2022-09-15T02:59:57.247Z,56.86
2022-09-15T03:02:25.563Z,57.19
2022-09-15T03:04:54.779Z,57.34
2022-09-15T03:07:21.202Z,56.80
2022-09-15T03:09:47.555Z,56.94
2022-09-15T03:12:15.907Z,57.56
2022-09-15T03:14:42.362Z,57.34
2022-09-15T03:17:08.828Z,57.17
2022-09-15T03:19:37.115Z,57.05
2022-09-15T03:22:04.322Z,56.89
2022-09-15T03:24:30.707Z,57.57
2022-09-15T03:26:57.923Z,57.39
2022-09-15T03:29:26.248Z,57.50
2022-09-15T03:31:54.569Z,57.21
2022-09-15T03:34:21.031Z,57.61
2022-09-15T03:36:48.257Z,57.33
2022-09-15T03:39:14.665Z,57.15
2022-09-15T03:41:41.875Z,57.53
2022-09-15T03:44:08.349Z,57.08
2022-09-15T03:46:35.693Z,57.32
2022-09-15T03:49:02.148Z,57.17
2022-09-15T03:51:29.374Z,57.22
2022-09-15T03:53:56.596Z,57.33
2022-09-15T03:56:23.816Z,57.40
2022-09-15T03:58:50.303Z,57.08
2022-09-15T04:01:17.550Z,56.89
2022-09-15T04:03:48.860Z,56.96
2022-09-15T04:06:17.181Z,57.11
2022-09-15T04:08:44.471Z,56.90
2022-09-15T04:11:12.794Z,56.84
2022-09-15T04:13:41.953Z,56.78
2022-09-15T04:16:09.217Z,57.53
2022-09-15T04:18:35.704Z,57.17
2022-09-15T04:21:04.039Z,57.26
2022-09-15T04:23:33.932Z,57.68
2022-09-15T04:26:00.357Z,57.33
2022-09-15T04:28:26.763Z,57.55
2022-09-15T04:30:53.160Z,57.32
2022-09-15T04:33:19.598Z,57.54
2022-09-15T04:35:47.806Z,57.97
2022-09-15T04:38:17.720Z,57.65
2022-09-15T04:40:46.967Z,58.13
2022-09-15T04:43:13.373Z,57.74
2022-09-15T04:45:39.805Z,57.68
2022-09-15T04:48:06.332Z,58.03
2022-09-15T04:50:32.810Z,58.05
2022-09-15T04:52:59.204Z,58.05
2022-09-15T04:55:26.406Z,58.22
2022-09-15T04:57:52.812Z,58.61
2022-09-15T05:00:19.254Z,57.67
2022-09-15T05:02:45.737Z,58.15
2022-09-15T05:05:14.047Z,58.30
2022-09-15T05:07:40.497Z,58.47
2022-09-15T05:10:08.779Z,58.14
2022-09-15T05:12:35.325Z,58.25
2022-09-15T05:15:04.545Z,58.27
2022-09-15T05:17:31.757Z,58.21
2022-09-15T05:20:00.040Z,57.96
2022-09-15T05:22:26.518Z,58.10
2022-09-15T05:24:52.916Z,58.32
2022-09-15T05:27:21.168Z,58.15
2022-09-15T05:29:47.691Z,58.43
2022-09-15T05:32:15.971Z,58.35
2022-09-15T05:34:43.184Z,58.11
2022-09-15T05:37:09.641Z,58.49
2022-09-15T05:39:36.857Z,58.21
2022-09-15T05:42:03.354Z,58.33
2022-09-15T05:44:33.256Z,58.25
2022-09-15T05:47:02.471Z,57.84
2022-09-15T05:49:28.913Z,58.36
2022-09-15T05:51:55.368Z,58.24
2022-09-15T05:54:24.526Z,58.04
2022-09-15T05:56:50.934Z,58.18
2022-09-15T05:59:18.208Z,58.39
2022-09-15T06:01:44.723Z,58.37
2022-09-15T06:04:12.997Z,58.24
2022-09-15T06:06:39.447Z,58.37
2022-09-15T06:09:07.710Z,58.24
2022-09-15T06:11:34.175Z,58.63
2022-09-15T06:14:00.551Z,58.17
2022-09-15T06:16:26.957Z,58.38
2022-09-15T06:18:53.406Z,58.27
2022-09-15T06:21:19.928Z,57.87
2022-09-15T06:23:50.718Z,58.20
2022-09-15T06:26:19.189Z,58.08
2022-09-15T06:28:45.680Z,58.07
2022-09-15T06:31:13.936Z,58.14
2022-09-15T06:33:42.275Z,58.37
2022-09-15T06:36:11.451Z,58.07
2022-09-15T06:38:37.971Z,58.04
2022-09-15T06:41:05.322Z,58.11
2022-09-15T06:43:32.656Z,58.36
2022-09-15T06:45:59.131Z,57.96
2022-09-15T06:48:25.582Z,58.20
2022-09-15T06:50:52.845Z,58.43
2022-09-15T06:53:20.122Z,58.42
2022-09-15T06:55:46.574Z,58.51
2022-09-15T06:58:13.993Z,58.14
2022-09-15T07:00:40.663Z,58.47
2022-09-15T07:03:08.193Z,58.03
2022-09-15T07:05:35.701Z,58.27
2022-09-15T07:08:02.485Z,58.31
2022-09-15T07:10:30.066Z,57.81
2022-09-15T07:12:58.405Z,58.00
2022-09-15T07:15:25.641Z,57.82
2022-09-15T07:17:54.799Z,57.72
2022-09-15T07:20:23.124Z,57.51
2022-09-15T07:22:49.531Z,57.90
2022-09-15T07:25:15.943Z,57.74
2022-09-15T07:27:42.587Z,57.72
2022-09-15T07:30:09.044Z,57.82
2022-09-15T07:32:38.290Z,57.34
2022-09-15T07:35:06.540Z,57.61
2022-09-15T07:37:32.909Z,57.14
2022-09-15T07:39:59.289Z,56.72
2022-09-15T07:42:25.667Z,56.50
2022-09-15T07:44:52.951Z,56.75
2022-09-15T07:47:19.303Z,56.74
2022-09-15T07:49:45.651Z,56.76
2022-09-15T07:52:12.023Z,56.08
2022-09-15T07:54:38.347Z,55.57
2022-09-15T07:57:04.749Z,55.83
2022-09-15T07:59:31.099Z,55.66
2022-09-15T08:01:57.559Z,55.07
2022-09-15T08:04:23.949Z,55.12
2022-09-15T08:06:50.271Z,55.01
2022-09-15T08:09:17.485Z,55.24
2022-09-15T08:11:43.825Z,54.66
2022-09-15T08:14:10.140Z,54.96
2022-09-15T08:16:36.535Z,55.45
2022-09-15T08:19:02.857Z,55.29
2022-09-15T08:21:29.250Z,55.14
2022-09-15T08:23:55.562Z,54.88
2022-09-15T08:26:21.914Z,54.67
2022-09-15T08:28:48.220Z,54.73
2022-09-15T08:31:15.532Z,54.80
2022-09-15T08:33:45.462Z,54.67
2022-09-15T08:36:13.036Z,55.29
2022-09-15T08:38:39.409Z,54.09
2022-09-15T08:41:05.733Z,53.45
2022-09-15T08:43:32.086Z,53.33
2022-09-15T08:45:58.447Z,53.20
2022-09-15T08:48:24.780Z,53.28
2022-09-15T08:50:51.145Z,52.68
2022-09-15T08:53:18.363Z,52.67
2022-09-15T08:55:44.687Z,52.74
2022-09-15T08:58:11.919Z,53.00
2022-09-15T09:00:38.277Z,52.30
2022-09-15T09:03:04.669Z,52.59
2022-09-15T09:05:31.044Z,52.42
2022-09-15T09:07:57.404Z,52.12
2022-09-15T09:10:23.776Z,52.61
2022-09-15T09:12:50.097Z,51.99
2022-09-15T09:15:16.524Z,51.59
2022-09-15T09:17:42.862Z,52.05
2022-09-15T09:20:10.043Z,52.00
2022-09-15T09:22:36.389Z,51.51
2022-09-15T09:25:11.564Z,51.95
2022-09-15T09:27:47.735Z,51.89
2022-09-15T09:30:14.946Z,51.40
2022-09-15T09:32:41.275Z,51.26
2022-09-15T09:35:07.591Z,51.29
2022-09-15T09:37:33.933Z,51.72
2022-09-15T09:40:00.378Z,51.28
2022-09-15T09:42:26.811Z,51.04
2022-09-15T09:44:53.135Z,50.99
2022-09-15T09:47:19.483Z,51.09
2022-09-15T09:49:45.822Z,51.05
2022-09-15T09:52:13.037Z,50.62
2022-09-15T09:54:39.381Z,50.81
2022-09-15T09:57:05.747Z,51.01
2022-09-15T09:59:32.083Z,50.67
2022-09-15T10:01:58.410Z,51.20
2022-09-15T10:04:24.796Z,51.18
2022-09-15T10:06:51.124Z,51.34
2022-09-15T10:09:17.481Z,51.61
2022-09-15T10:11:43.847Z,51.14
2022-09-15T10:14:10.204Z,51.72
2022-09-15T10:16:37.466Z,51.68
2022-09-15T10:19:03.843Z,51.19
2022-09-15T10:21:30.175Z,51.17
2022-09-15T10:23:56.503Z,51.13
2022-09-15T10:26:22.817Z,51.25
2022-09-15T10:28:49.129Z,50.91
2022-09-15T10:31:16.564Z,51.17
2022-09-15T10:33:42.949Z,51.25
2022-09-15T10:36:09.287Z,51.13
2022-09-15T10:38:35.607Z,51.12
2022-09-15T10:41:01.939Z,50.87
2022-09-15T10:43:28.243Z,50.99
2022-09-15T10:45:54.560Z,50.97
2022-09-15T10:48:21.819Z,50.91
2022-09-15T10:50:48.095Z,50.33
2022-09-15T10:53:15.301Z,50.50
2022-09-15T10:55:52.865Z,50.58
2022-09-15T10:58:19.821Z,50.90
2022-09-15T11:00:46.196Z,50.34
2022-09-15T11:03:13.409Z,50.22
2022-09-15T11:05:39.765Z,50.76
2022-09-15T11:08:06.135Z,50.16
2022-09-15T11:10:32.473Z,50.13
2022-09-15T11:12:58.797Z,50.37
2022-09-15T11:15:25.124Z,50.05
2022-09-15T11:17:51.470Z,50.11
2022-09-15T11:20:17.818Z,50.07
2022-09-15T11:22:48.737Z,50.15
2022-09-15T11:25:15.869Z,49.96
2022-09-15T11:27:42.416Z,49.97
2022-09-15T11:30:08.820Z,50.16
2022-09-15T11:32:35.179Z,50.48
2022-09-15T11:35:01.511Z,50.15
2022-09-15T11:37:27.827Z,50.04
2022-09-15T11:39:54.196Z,50.19
2022-09-15T11:42:21.450Z,50.27
2022-09-15T11:44:47.787Z,50.34
2022-09-15T11:47:14.125Z,50.29
2022-09-15T11:49:40.500Z,50.29
2022-09-15T11:52:06.845Z,50.36
2022-09-15T11:54:33.177Z,50.27
2022-09-15T11:56:59.537Z,50.61
2022-09-15T11:59:25.839Z,50.26
2022-09-15T12:01:52.240Z,50.27
2022-09-15T12:04:19.602Z,50.56
2022-09-15T12:06:46.237Z,50.62
2022-09-15T12:09:13.560Z,50.56
2022-09-15T12:11:39.891Z,50.79
2022-09-15T12:14:06.254Z,50.93
2022-09-15T12:16:32.575Z,50.90
2022-09-15T12:18:58.912Z,51.05
2022-09-15T12:21:25.237Z,51.04
2022-09-15T12:23:51.673Z,50.63
2022-09-15T12:26:18.989Z,50.50
2022-09-15T12:28:45.328Z,50.89
2022-09-15T12:31:11.769Z,50.69
2022-09-15T12:33:38.145Z,50.88
2022-09-15T12:36:04.518Z,50.51
2022-09-15T12:38:30.863Z,50.64
2022-09-15T12:40:57.225Z,50.98
2022-09-15T12:43:23.546Z,50.39
2022-09-15T12:45:49.869Z,50.55
2022-09-15T12:48:16.179Z,50.78
2022-09-15T12:50:42.687Z,50.76
2022-09-15T12:53:09.894Z,50.48
2022-09-15T12:55:36.322Z,50.68
2022-09-15T12:58:02.663Z,50.82
2022-09-15T13:00:29.006Z,50.74
2022-09-15T13:02:55.482Z,50.80
2022-09-15T13:05:21.830Z,51.22
2022-09-15T13:07:48.162Z,51.30
2022-09-15T13:10:15.415Z,51.20
2022-09-15T13:12:41.753Z,51.54
2022-09-15T13:15:08.955Z,51.22
2022-09-15T13:17:35.300Z,51.68
2022-09-15T13:20:03.715Z,50.72
2022-09-15T13:22:30.053Z,50.93
2022-09-15T13:24:59.233Z,50.87
2022-09-15T13:27:28.046Z,50.42
2022-09-15T13:29:54.416Z,50.94
2022-09-15T13:32:20.760Z,50.82
2022-09-15T13:35:09.917Z,50.26
2022-09-15T13:40:19.741Z,50.39
2022-09-15T13:42:46.123Z,50.39
2022-09-15T13:45:13.628Z,50.71
2022-09-15T13:47:39.967Z,50.43
2022-09-15T13:50:06.331Z,50.01
2022-09-15T13:52:32.652Z,50.04
2022-09-15T13:54:58.992Z,50.20
2022-09-15T13:58:54.780Z,50.28
2022-09-15T14:00:18.212Z,50.13
2022-09-15T14:05:18.669Z,50.22
2022-09-15T14:07:46.108Z,50.21
2022-09-15T14:10:13.224Z,50.14
2022-09-15T14:12:39.582Z,50.29
2022-09-15T14:15:05.968Z,50.46
2022-09-15T14:17:32.326Z,50.34
2022-09-15T14:19:58.741Z,50.14
2022-09-15T14:22:25.252Z,49.93
2022-09-15T14:24:51.605Z,49.99
2022-09-15T14:27:18.808Z,49.95
2022-09-15T14:29:45.179Z,50.46
2022-09-15T14:32:11.660Z,49.90
2022-09-15T14:34:38.134Z,50.11
2022-09-15T14:37:04.563Z,50.06
2022-09-15T14:39:30.882Z,49.99
2022-09-15T14:41:57.207Z,50.01
2022-09-15T14:47:10.753Z,50.10
2022-09-15T14:49:37.062Z,50.15
2022-09-15T14:52:03.398Z,50.65
2022-09-15T14:54:29.704Z,50.29
2022-09-15T14:56:56.046Z,50.51
2022-09-15T14:59:22.435Z,50.58
2022-09-15T15:01:48.814Z,50.55
2022-09-15T15:04:16.070Z,50.71
2022-09-15T15:06:42.393Z,50.78
2022-09-15T15:09:08.762Z,50.82
2022-09-15T15:11:35.091Z,50.61
2022-09-15T15:14:01.416Z,50.44
2022-09-15T15:16:27.856Z,50.54
2022-09-15T15:18:54.204Z,50.66
2022-09-15T15:21:21.413Z,50.90
2022-09-15T15:23:47.945Z,51.05
2022-09-15T15:26:15.284Z,50.55
2022-09-15T15:28:41.648Z,50.94
2022-09-15T15:31:08.068Z,50.75
2022-09-15T15:33:35.300Z,50.88
2022-09-15T15:36:01.700Z,50.97
2022-09-15T15:38:28.063Z,50.97
2022-09-15T15:40:54.398Z,50.63
2022-09-15T15:43:20.759Z,50.98
2022-09-15T15:45:47.169Z,51.49
2022-09-15T15:48:13.540Z,51.00
2022-09-15T15:50:39.860Z,51.19
2022-09-15T15:53:06.216Z,51.06
2022-09-15T15:55:32.576Z,51.39
2022-09-15T15:57:59.007Z,51.49
2022-09-15T16:00:25.407Z,51.11
2022-09-15T16:02:51.748Z,51.41
2022-09-15T16:05:18.070Z,51.17
2022-09-15T16:07:44.401Z,51.64
2022-09-15T16:10:10.804Z,51.41
2022-09-15T16:12:37.195Z,51.47
2022-09-15T16:15:03.536Z,51.37
2022-09-15T16:17:29.835Z,51.56
2022-09-15T16:19:56.171Z,51.51
2022-09-15T16:22:22.500Z,51.18
2022-09-15T16:24:48.870Z,51.65
2022-09-15T16:27:15.214Z,51.32
2022-09-15T16:29:41.578Z,51.53
2022-09-15T16:32:07.929Z,51.63
2022-09-15T16:34:34.299Z,51.61
2022-09-15T16:37:00.649Z,51.71
2022-09-15T16:39:28.291Z,51.37
2022-09-15T16:41:54.660Z,51.74
2022-09-15T16:44:21.023Z,51.46
2022-09-15T16:46:47.448Z,51.58
2022-09-15T16:49:13.965Z,51.97
2022-09-15T16:51:40.458Z,51.59
2022-09-15T16:54:07.080Z,51.65
2022-09-15T16:56:33.703Z,51.75
2022-09-15T16:59:00.755Z,51.67
2022-09-15T17:01:27.423Z,51.63
2022-09-15T17:03:53.963Z,52.26
2022-09-15T17:06:21.337Z,51.76
2022-09-15T17:08:47.754Z,52.14
2022-09-15T17:11:16.477Z,52.13
2022-09-15T17:13:43.294Z,51.79
2022-09-15T17:16:10.812Z,51.82
2022-09-15T17:18:37.516Z,52.13
2022-09-15T17:21:03.978Z,51.91
2022-09-15T17:23:30.358Z,52.27
2022-09-15T17:25:56.701Z,52.28
2022-09-15T17:28:23.057Z,51.83
2022-09-15T17:30:49.676Z,52.29
2022-09-15T17:33:17.118Z,52.02
2022-09-15T17:35:43.526Z,52.22
2022-09-15T17:38:10.028Z,52.14
2022-09-15T17:40:36.520Z,52.13
2022-09-15T17:43:03.031Z,52.50
2022-09-15T17:45:29.487Z,52.61
2022-09-15T17:47:55.811Z,52.82
2022-09-15T17:50:22.265Z,52.70
2022-09-15T17:52:48.672Z,52.60
2022-09-15T17:55:15.968Z,52.23
2022-09-15T17:57:42.556Z,52.65
2022-09-15T18:00:09.905Z,52.70
2022-09-15T18:02:37.299Z,52.78
2022-09-15T18:05:03.730Z,52.41
2022-09-15T18:07:30.147Z,52.73
2022-09-15T18:09:56.629Z,52.73
2022-09-15T18:12:23.100Z,52.65
2022-09-15T18:14:49.686Z,52.66
2022-09-15T18:17:17.053Z,52.78
2022-09-15T18:19:43.524Z,52.80
2022-09-15T18:22:10.942Z,52.44
2022-09-15T18:24:37.530Z,52.91
2022-09-15T18:27:04.097Z,52.89
2022-09-15T18:29:31.429Z,52.90
2022-09-15T18:31:57.811Z,52.71
2022-09-15T18:34:24.318Z,53.04
2022-09-15T18:36:50.713Z,52.95
2022-09-15T18:39:18.075Z,52.88
2022-09-15T18:41:44.517Z,52.79
2022-09-15T18:44:11.014Z,52.96
2022-09-15T18:46:37.661Z,53.12
2022-09-15T18:49:06.914Z,53.28
2022-09-15T18:51:50.534Z,53.17
2022-09-15T18:54:17.715Z,53.08
2022-09-15T18:56:44.565Z,53.29
2022-09-15T18:59:17.461Z,53.27
2022-09-15T19:01:45.318Z,53.54
2022-09-15T19:04:11.858Z,53.13
2022-09-15T19:06:38.311Z,53.55
2022-09-15T19:09:07.523Z,53.44
2022-09-15T19:11:34.111Z,53.20
2022-09-15T19:14:03.321Z,53.46
2022-09-15T19:16:46.886Z,53.30
2022-09-15T19:19:16.210Z,53.52
2022-09-15T19:21:42.687Z,53.57
2022-09-15T19:24:09.073Z,53.69
2022-09-15T19:26:36.308Z,53.95
2022-09-15T19:29:03.563Z,55.41
2022-09-15T19:31:30.804Z,54.99
2022-09-15T19:33:57.213Z,54.64
2022-09-15T19:36:28.434Z,54.47
2022-09-15T19:38:55.497Z,54.31
2022-09-15T19:41:22.017Z,55.07
2022-09-15T19:43:48.546Z,54.64
2022-09-15T19:46:15.806Z,54.67
2022-09-15T19:48:45.645Z,54.27
2022-09-15T19:51:16.315Z,54.50
2022-09-15T19:53:42.641Z,54.70
2022-09-15T19:56:09.834Z,54.28
2022-09-15T19:58:36.250Z,54.34
2022-09-15T20:01:02.604Z,54.85
2022-09-15T20:03:30.589Z,54.62
2022-09-15T20:05:58.334Z,54.52
2022-09-15T20:08:25.397Z,54.73
2022-09-15T20:10:52.393Z,54.62
2022-09-15T20:13:19.416Z,54.65
2022-09-15T20:15:46.459Z,54.47
2022-09-15T20:18:14.381Z,54.53
2022-09-15T20:20:41.433Z,54.37
2022-09-15T20:23:17.160Z,54.85
2022-09-15T20:25:44.191Z,55.06
2022-09-15T20:28:12.119Z,54.71
2022-09-15T20:30:39.248Z,54.65
2022-09-15T20:33:06.349Z,54.56
2022-09-15T20:35:36.188Z,54.82
2022-09-15T20:38:03.124Z,55.03
2022-09-15T20:40:30.253Z,55.06
2022-09-15T20:42:56.776Z,54.80
2022-09-15T20:45:23.658Z,54.78
2022-09-15T20:47:50.136Z,54.76
2022-09-15T20:50:17.876Z,55.05
2022-09-15T20:52:44.344Z,55.03
2022-09-15T20:55:11.258Z,55.02
2022-09-15T20:57:38.251Z,55.29
2022-09-15T21:00:05.171Z,54.93
2022-09-15T21:02:31.911Z,55.07
2022-09-15T21:04:58.928Z,55.14
2022-09-15T21:07:25.463Z,55.09
2022-09-15T21:09:52.262Z,55.23
2022-09-15T21:12:18.945Z,55.30
2022-09-15T21:14:45.413Z,55.02
2022-09-15T21:17:11.841Z,55.75
2022-09-15T21:19:38.342Z,55.32
2022-09-15T21:22:04.802Z,54.98
2022-09-15T21:24:31.215Z,55.25
2022-09-15T21:26:57.623Z,55.55
2022-09-15T21:29:24.194Z,55.48
2022-09-15T21:31:50.618Z,55.56
2022-09-15T21:34:17.084Z,55.65
2022-09-15T21:36:43.488Z,55.80
2022-09-15T21:39:10.740Z,55.81
2022-09-15T21:41:37.186Z,55.69
2022-09-15T21:44:03.595Z,55.68
2022-09-15T21:46:30.019Z,55.65
2022-09-15T21:48:56.423Z,55.40
2022-09-15T21:51:25.066Z,55.37
2022-09-15T21:53:51.658Z,55.87
2022-09-15T21:56:18.911Z,55.87
2022-09-15T21:58:45.307Z,55.51
2022-09-15T22:01:12.695Z,55.64
2022-09-15T22:03:39.288Z,55.75
2022-09-15T22:06:05.846Z,55.88
2022-09-15T22:08:32.358Z,55.56
2022-09-15T22:10:58.770Z,56.00
2022-09-15T22:13:25.170Z,55.86
2022-09-15T22:15:51.561Z,55.91
2022-09-15T22:18:18.823Z,56.23
2022-09-15T22:20:45.226Z,55.86
2022-09-15T22:23:12.489Z,55.97
2022-09-15T22:25:38.942Z,56.20
2022-09-15T22:28:05.349Z,55.94
2022-09-15T22:30:31.760Z,56.31
2022-09-15T22:32:58.150Z,55.89
2022-09-15T22:35:24.541Z,56.13
2022-09-15T22:37:50.970Z,56.25
2022-09-15T22:40:17.398Z,55.93
2022-09-15T22:42:43.855Z,55.65
2022-09-15T22:45:10.455Z,55.77
2022-09-15T22:47:36.916Z,56.41
2022-09-15T22:50:03.310Z,56.16
2022-09-15T22:52:29.727Z,56.28
2022-09-15T22:54:56.124Z,56.00
2022-09-15T22:57:22.548Z,55.93
2022-09-15T22:59:49.023Z,56.47
2022-09-15T23:02:15.514Z,55.90
2022-09-15T23:04:41.885Z,56.01
2022-09-15T23:07:08.320Z,56.25
2022-09-15T23:09:34.667Z,56.24
2022-09-15T23:12:01.000Z,56.37
2022-09-15T23:14:27.343Z,56.52
2022-09-15T23:16:53.670Z,55.72
2022-09-15T23:19:20.126Z,55.78
2022-09-15T23:21:46.474Z,56.05
2022-09-15T23:24:13.685Z,55.93
2022-09-15T23:26:40.018Z,56.57
2022-09-15T23:29:06.402Z,56.45
2022-09-15T23:31:32.810Z,56.10
2022-09-15T23:33:59.166Z,56.17
2022-09-15T23:36:25.516Z,55.96
2022-09-15T23:38:51.858Z,56.21
2022-09-15T23:41:18.205Z,56.80
2022-09-15T23:43:44.542Z,56.88
2022-09-15T23:46:11.024Z,56.70
2022-09-15T23:48:37.395Z,56.71
2022-09-15T23:51:03.773Z,56.15
2022-09-15T23:53:30.130Z,56.56
2022-09-15T23:55:56.455Z,56.28
2022-09-15T23:58:22.786Z,56.63
